Time;durP1;ratioP1;P1;durP2;ratioP2;P2;SDS_P1;SDS_P2;PMS_P1;PMS_P2;Temp;Humidity;BMP_temperature;BMP_pressure;BME280_temperature;BME280_humidity;BME280_pressure;Samples;Min_cycle;Max_cycle;Signal;HPM_P1;HPM_P2
2022/07/18 00:02:01;;;;;;;5.97;4.50;;;;;;;16.62;100.00;102570.75;4980454;28;20272;-72
2022/07/18 00:04:27;;;;;;;5.53;4.93;;;;;;;16.40;100.00;102534.75;4980314;28;20634;-72
2022/07/18 00:06:53;;;;;;;6.10;3.50;;;;;;;16.71;100.00;102576.84;4980075;28;20445;-72
2022/07/18 00:09:19;;;;;;;3.90;3.40;;;;;;;16.78;100.00;102580.50;4981489;28;20675;-72
2022/07/18 00:11:45;;;;;;;4.53;4.13;;;;;;;16.86;100.00;102577.59;4982421;28;20512;-71
2022/07/18 00:14:11;;;;;;;5.07;4.50;;;;;;;16.98;100.00;102568.91;4982827;28;20826;-71
2022/07/18 00:16:37;;;;;;;6.27;4.57;;;;;;;16.82;100.00;102541.09;4979340;28;20225;-71
2022/07/18 00:19:03;;;;;;;6.63;4.77;;;;;;;16.75;100.00;102545.63;4981989;28;20504;-71
2022/07/18 00:21:29;;;;;;;5.60;4.40;;;;;;;16.52;100.00;102502.53;4979622;28;20679;-71
2022/07/18 00:23:54;;;;;;;4.93;3.70;;;;;;;16.40;100.00;102487.84;4981425;28;20519;-71
2022/07/18 00:26:20;;;;;;;5.63;4.07;;;;;;;16.33;100.00;102504.06;4978986;28;20196;-72
2022/07/18 00:28:45;;;;;;;6.10;3.97;;;;;;;16.61;100.00;102527.59;4979555;28;20627;-74
2022/07/18 00:31:11;;;;;;;5.40;4.23;;;;;;;16.91;100.00;102558.03;4981189;28;20218;-74
2022/07/18 00:33:36;;;;;;;4.60;4.17;;;;;;;16.85;100.00;102532.56;4979008;28;20186;-74
2022/07/18 00:36:02;;;;;;;4.73;4.23;;;;;;;16.97;100.00;102551.00;4979946;28;20194;-71
2022/07/18 00:38:27;;;;;;;5.40;4.50;;;;;;;17.02;100.00;102548.53;4978777;28;20714;-74
2022/07/18 00:40:53;;;;;;;5.00;4.17;;;;;;;16.67;100.00;102511.38;4978676;28;20193;-74
2022/07/18 00:43:18;;;;;;;5.77;4.50;;;;;;;16.38;100.00;102488.06;4980023;28;20321;-74
2022/07/18 00:45:46;;;;;;;6.03;4.23;;;;;;;16.46;100.00;102481.63;4980042;28;20209;-74
2022/07/18 00:48:12;;;;;;;5.77;5.07;;;;;;;16.77;100.00;102529.19;4980141;28;20202;-72
2022/07/18 00:50:38;;;;;;;7.00;5.10;;;;;;;16.94;100.00;102539.50;4982620;28;20438;-71
2022/07/18 00:53:05;;;;;;;5.80;4.70;;;;;;;16.70;100.00;102532.66;4982420;28;20471;-72
2022/07/18 00:55:31;;;;;;;5.57;4.23;;;;;;;16.43;100.00;102492.88;4983846;28;20446;-72
2022/07/18 00:57:57;;;;;;;5.87;5.03;;;;;;;16.80;100.00;102543.16;4984852;28;20472;-74
2022/07/18 01:03:07;;;;;;;5.00;4.07;;;;;;;16.80;100.00;102543.16;4982954;28;20427;-72
2022/07/18 01:05:32;;;;;;;4.57;4.17;;;;;;;16.75;100.00;102550.19;4984659;28;20832;-72
2022/07/18 01:07:58;;;;;;;5.37;4.00;;;;;;;16.59;100.00;102549.47;4982865;28;20197;-72
2022/07/18 01:10:23;;;;;;;6.10;4.07;;;;;;;16.59;100.00;102549.47;4983426;28;20190;-75
2022/07/18 01:12:49;;;;;;;6.07;4.87;;;;;;;16.40;100.00;102540.16;4981836;28;20186;-72
2022/07/18 01:15:14;;;;;;;4.40;4.00;;;;;;;16.49;100.00;102552.53;4982831;28;20275;-72
2022/07/18 01:17:40;;;;;;;6.10;4.37;;;;;;;16.26;100.00;102549.22;4981892;28;20268;-72
2022/07/18 01:20:06;;;;;;;6.40;3.97;;;;;;;16.50;100.00;102556.06;4982672;28;20218;-73
2022/07/18 01:22:32;;;;;;;5.73;4.33;;;;;;;16.28;100.00;102529.00;4980452;28;20186;-72
2022/07/18 01:24:58;;;;;;;4.80;4.13;;;;;;;16.38;100.00;102536.81;4982877;28;20970;-72
2022/07/18 01:27:23;;;;;;;5.17;4.23;;;;;;;16.61;100.00;102538.44;4984248;28;20277;-72
2022/07/18 01:29:51;;;;;;;4.13;3.37;;;;;;;16.67;100.00;102532.22;4983197;28;20220;-72
2022/07/18 01:32:17;;;;;;;6.00;4.57;;;;;;;16.67;100.00;102543.91;4983660;28;20603;-71
2022/07/18 01:34:44;;;;;;;5.23;4.70;;;;;;;16.46;100.00;102531.25;4981297;28;20437;-71
2022/07/18 01:37:10;;;;;;;5.53;4.97;;;;;;;16.55;100.00;102541.91;4982449;28;20544;-71
2022/07/18 01:39:36;;;;;;;4.20;3.80;;;;;;;16.45;100.00;102536.84;4982399;28;20561;-72
2022/07/18 01:42:04;;;;;;;5.30;3.90;;;;;;;16.54;100.00;102543.78;4982362;28;20189;-72
2022/07/18 01:44:30;;;;;;;5.30;4.10;;;;;;;16.59;100.00;102546.75;4981633;28;20265;-72
2022/07/18 01:46:56;;;;;;;5.40;4.20;;;;;;;16.55;100.00;102548.19;4983741;28;20449;-72
2022/07/18 01:49:22;;;;;;;6.00;3.97;;;;;;;16.44;100.00;102538.72;4982435;28;20531;-72
2022/07/18 01:51:51;;;;;;;6.37;4.20;;;;;;;16.50;100.00;102539.81;4981673;28;20244;-71
2022/07/18 01:54:23;;;;;;;5.50;4.50;;;;;;;16.60;100.00;102534.88;4982299;28;20444;-72
2022/07/18 01:56:48;;;;;;;6.60;4.30;;;;;;;16.28;100.00;102526.28;4983000;28;20453;-71
2022/07/18 01:59:14;;;;;;;5.53;4.20;;;;;;;16.35;100.00;102531.78;4982939;28;20487;-72
2022/07/18 02:01:39;;;;;;;4.63;4.23;;;;;;;16.23;100.00;102504.41;4982169;28;20703;-72
2022/07/18 02:04:05;;;;;;;6.50;4.13;;;;;;;16.35;100.00;102536.38;4981236;28;20320;-72
2022/07/18 02:06:31;;;;;;;5.80;4.20;;;;;;;16.31;100.00;102513.41;4981227;28;20196;-71
2022/07/18 02:08:56;;;;;;;7.17;4.80;;;;;;;16.07;100.00;102469.50;4981832;28;20714;-71
2022/07/18 02:11:22;;;;;;;6.57;4.33;;;;;;;16.39;100.00;102527.63;4980895;28;20186;-72
2022/07/18 02:13:47;;;;;;;6.00;4.00;;;;;;;15.76;100.00;102415.72;4981802;28;20612;-71
2022/07/18 02:16:13;;;;;;;5.70;4.20;;;;;;;16.60;100.00;102498.81;4984702;28;20198;-72
2022/07/18 02:18:38;;;;;;;6.60;5.23;;;;;;;16.56;100.00;102492.97;4984259;28;20209;-71
2022/07/18 02:21:04;;;;;;;5.80;4.43;;;;;;;16.01;100.00;102416.16;4981814;28;20260;-71
2022/07/18 02:23:29;;;;;;;7.07;5.27;;;;;;;16.31;100.00;102435.72;4984027;28;20328;-71
2022/07/18 02:25:55;;;;;;;5.60;4.53;;;;;;;16.28;100.00;102446.94;4983858;28;20249;-72
2022/07/18 02:28:21;;;;;;;5.80;4.47;;;;;;;16.66;100.00;102489.91;4983839;28;20279;-71
2022/07/18 02:30:48;;;;;;;6.70;5.67;;;;;;;16.54;100.00;102492.31;4984590;28;20181;-72
2022/07/18 02:33:14;;;;;;;6.60;4.77;;;;;;;16.60;100.00;102496.13;4982048;28;20444;-71
2022/07/18 02:35:39;;;;;;;5.70;4.60;;;;;;;16.65;100.00;102502.59;4980446;28;20507;-72
2022/07/18 02:38:05;;;;;;;8.33;5.50;;;;;;;16.51;100.00;102508.97;4983525;28;20472;-72
2022/07/18 02:40:30;;;;;;;5.87;4.60;;;;;;;16.57;100.00;102502.75;4981907;28;20188;-72
2022/07/18 02:42:55;;;;;;;4.93;4.40;;;;;;;16.45;100.00;102509.75;4982725;28;20198;-72
2022/07/18 02:45:21;;;;;;;7.33;5.80;;;;;;;15.90;100.00;102428.31;4982983;28;20619;-72
2022/07/18 02:47:46;;;;;;;6.77;5.20;;;;;;;16.00;100.00;102469.44;4980760;28;20186;-72
2022/07/18 02:50:12;;;;;;;6.30;5.30;;;;;;;16.11;100.00;102522.19;4980698;28;20210;-71
2022/07/18 02:52:40;;;;;;;7.60;4.80;;;;;;;16.04;100.00;102516.72;4984817;28;20182;-72
2022/07/18 02:55:06;;;;;;;7.67;5.60;;;;;;;16.01;100.00;102516.28;4981857;28;20511;-71
2022/07/18 02:57:31;;;;;;;6.73;4.77;;;;;;;15.85;100.00;102465.13;4981571;28;20449;-72
2022/07/18 02:59:57;;;;;;;6.93;5.40;;;;;;;15.93;100.00;102487.47;4980688;28;20473;-72
2022/07/18 03:02:23;;;;;;;6.77;5.67;;;;;;;16.11;100.00;102499.69;4982116;28;20189;-71
2022/07/18 03:04:48;;;;;;;7.70;5.50;;;;;;;15.75;100.00;102446.53;4981631;28;20213;-72
2022/07/18 03:07:14;;;;;;;7.53;5.23;;;;;;;15.72;100.00;102436.91;4981440;28;20197;-72
2022/07/18 03:09:39;;;;;;;7.10;5.00;;;;;;;16.12;100.00;102493.28;4981548;28;20225;-72
2022/07/18 03:12:04;;;;;;;6.40;5.20;;;;;;;15.67;100.00;102430.38;4983480;28;20190;-72
2022/07/18 03:14:30;;;;;;;6.47;5.50;;;;;;;15.79;100.00;102467.59;4979409;28;20190;-72
2022/07/18 03:16:55;;;;;;;7.80;5.93;;;;;;;15.95;100.00;102493.53;4981686;28;20663;-72
2022/07/18 03:19:21;;;;;;;7.87;5.83;;;;;;;15.56;100.00;102437.13;4979602;28;20218;-72
2022/07/18 03:21:46;;;;;;;7.53;6.23;;;;;;;15.31;100.00;102405.09;4980046;28;20189;-72
2022/07/18 03:24:13;;;;;;;11.97;5.70;;;;;;;15.59;100.00;102461.97;4981162;28;20194;-72
2022/07/18 03:26:39;;;;;;;6.33;5.40;;;;;;;15.73;100.00;102481.88;4978910;28;20928;-72
2022/07/18 03:29:05;;;;;;;6.43;5.33;;;;;;;15.69;100.00;102487.88;4980713;28;20464;-72
2022/07/18 03:31:30;;;;;;;7.10;5.07;;;;;;;15.84;100.00;102485.94;4980081;28;20452;-72
2022/07/18 03:33:56;;;;;;;7.30;6.00;;;;;;;15.86;100.00;102483.06;4980444;28;20197;-72
2022/07/18 03:36:21;;;;;;;6.40;4.70;;;;;;;15.79;100.00;102448.66;4981905;28;20221;-72
2022/07/18 03:38:47;;;;;;;6.13;5.30;;;;;;;15.92;100.00;102479.56;4980143;28;20214;-72
2022/07/18 03:41:12;;;;;;;9.50;5.80;;;;;;;15.47;100.00;102409.38;4980650;28;20252;-72
2022/07/18 03:43:39;;;;;;;9.93;6.67;;;;;;;15.84;100.00;102471.56;4979900;28;20724;-72
2022/07/18 03:46:05;;;;;;;8.97;6.53;;;;;;;16.00;100.00;102476.72;4981131;28;20300;-72
2022/07/18 03:48:30;;;;;;;7.67;5.30;;;;;;;15.86;100.00;102467.66;4978707;28;21163;-72
2022/07/18 03:50:56;;;;;;;5.43;4.30;;;;;;;15.87;100.00;102450.38;4979150;28;20189;-72
2022/07/18 03:53:21;;;;;;;5.50;4.90;;;;;;;16.05;100.00;102460.72;4981786;28;20564;-72
2022/07/18 03:55:46;;;;;;;8.60;5.87;;;;;;;15.64;100.00;102433.47;4980069;28;20201;-72
2022/07/18 03:58:12;;;;;;;7.13;5.90;;;;;;;16.07;100.00;102455.13;4982139;28;20651;-72
2022/07/18 04:00:37;;;;;;;6.40;5.70;;;;;;;16.17;100.00;102450.19;4980436;28;20731;-73
2022/07/18 04:03:03;;;;;;;5.77;5.13;;;;;;;16.08;100.00;102416.19;4981502;28;20256;-72
2022/07/18 04:05:28;;;;;;;8.77;5.60;;;;;;;16.07;100.00;102430.75;4978852;28;20196;-72
2022/07/18 04:07:54;;;;;;;7.07;5.93;;;;;;;15.78;100.00;102432.59;4980849;28;20624;-72
2022/07/18 04:10:19;;;;;;;6.10;5.00;;;;;;;16.03;100.00;102427.63;4979560;28;20754;-72
2022/07/18 04:12:50;;;;;;;7.20;6.10;;;;;;;15.78;100.00;102408.25;4978419;28;20216;-72
2022/07/18 04:15:17;;;;;;;6.40;5.40;;;;;;;15.87;100.00;102449.53;4979435;28;20572;-72
2022/07/18 04:17:42;;;;;;;6.60;5.33;;;;;;;15.92;100.00;102441.69;4982440;28;20437;-72
2022/07/18 04:20:08;;;;;;;9.17;5.70;;;;;;;15.51;100.00;102359.31;4979235;28;20471;-72
2022/07/18 04:23:06;;;;;;;6.50;5.43;;;;;;;15.80;100.00;102433.25;4982096;28;20671;-72
2022/07/18 04:25:37;;;;;;;7.87;5.90;;;;;;;15.80;100.00;102427.84;4988658;28;20438;-72
2022/07/18 04:28:04;;;;;;;7.43;5.80;;;;;;;15.65;100.00;102411.66;4983465;28;20448;-72
2022/07/18 04:30:30;;;;;;;7.40;5.87;;;;;;;15.85;100.00;102430.78;4984957;28;20820;-72
2022/07/18 04:32:56;;;;;;;7.43;4.87;;;;;;;15.89;100.00;102428.53;4984649;28;20463;-72
2022/07/18 04:35:22;;;;;;;7.30;5.27;;;;;;;15.87;100.00;102428.72;4984936;28;20448;-72
2022/07/18 04:37:49;;;;;;;6.57;5.40;;;;;;;15.68;100.00;102386.09;4980745;28;20200;-72
2022/07/18 04:40:15;;;;;;;6.17;5.10;;;;;;;16.13;100.00;102433.50;4984863;28;20456;-72
2022/07/18 04:42:41;;;;;;;7.60;4.83;;;;;;;16.24;100.00;102437.56;4983365;28;20474;-72
2022/07/18 04:45:07;;;;;;;5.90;4.40;;;;;;;16.20;100.00;102434.41;4982992;28;20449;-72
2022/07/18 04:47:33;;;;;;;6.30;4.10;;;;;;;16.48;100.00;102438.94;4984070;28;20192;-72
2022/07/18 04:49:59;;;;;;;5.80;4.60;;;;;;;16.57;100.00;102437.75;4981634;28;26423;-72
2022/07/18 04:52:24;;;;;;;5.10;4.07;;;;;;;16.31;100.00;102405.94;4983044;28;20201;-72
2022/07/18 04:54:52;;;;;;;5.43;4.40;;;;;;;16.45;100.00;102429.34;4983536;28;20662;-72
2022/07/18 04:57:18;;;;;;;4.40;3.50;;;;;;;16.53;100.00;102424.81;4984417;28;20200;-72
2022/07/18 04:59:45;;;;;;;3.90;3.50;;;;;;;16.11;100.00;102370.59;4980813;28;20472;-72
2022/07/18 05:02:11;;;;;;;5.10;3.83;;;;;;;16.24;100.00;102357.16;4983057;28;20201;-72
2022/07/18 05:04:38;;;;;;;6.50;4.03;;;;;;;16.65;100.00;102399.66;4983764;28;20535;-73
2022/07/18 05:07:04;;;;;;;5.13;4.00;;;;;;;16.74;100.00;102394.91;4983320;28;20457;-73
2022/07/18 05:09:30;;;;;;;5.77;4.47;;;;;;;16.85;100.00;102390.81;4981439;28;20899;-73
2022/07/18 05:11:55;;;;;;;7.90;4.83;;;;;;;16.09;100.00;102305.03;4978883;28;20448;-72
2022/07/18 05:14:20;;;;;;;6.57;4.57;;;;;;;16.73;100.00;102377.00;4978505;28;20560;-72
2022/07/18 05:16:47;;;;;;;4.73;4.20;;;;;;;16.67;100.00;102389.47;4982939;28;20181;-71
2022/07/18 05:19:12;;;;;;;5.87;4.73;;;;;;;16.43;100.00;102392.66;4975254;28;20226;-74
2022/07/18 05:21:38;;;;;;;6.07;4.30;;;;;;;15.85;100.00;102259.50;4979992;28;20444;-74
2022/07/18 05:24:04;;;;;;;5.87;4.30;;;;;;;16.69;100.00;102381.13;4981442;28;20226;-74
2022/07/18 05:26:29;;;;;;;6.30;4.30;;;;;;;16.49;100.00;102379.19;4981855;28;20189;-75
2022/07/18 05:28:55;;;;;;;5.40;4.20;;;;;;;16.45;100.00;102356.22;4986167;28;20453;-74
2022/07/18 05:31:20;;;;;;;7.70;4.50;;;;;;;16.78;100.00;102385.38;4999351;28;20205;-74
2022/07/18 05:33:45;;;;;;;9.07;4.87;;;;;;;16.48;100.00;102350.41;4982922;28;20194;-74
2022/07/18 05:36:11;;;;;;;4.90;3.93;;;;;;;16.81;100.00;102386.88;4983124;28;20193;-73
2022/07/18 05:38:36;;;;;;;6.27;4.10;;;;;;;16.81;100.00;102374.16;4982026;28;20229;-74
2022/07/18 05:41:02;;;;;;;5.03;3.50;;;;;;;16.97;100.00;102385.66;4981182;28;20660;-74
2022/07/18 05:43:27;;;;;;;4.17;3.63;;;;;;;16.74;100.00;102356.97;4982847;28;20321;-75
2022/07/18 05:45:52;;;;;;;5.80;3.50;;;;;;;16.66;100.00;102319.22;4979266;28;20189;-74
2022/07/18 05:48:18;;;;;;;6.10;4.03;;;;;;;16.80;100.00;102388.72;4983509;28;20205;-74
2022/07/18 05:50:44;;;;;;;5.73;4.00;;;;;;;17.02;100.00;102385.88;4982849;28;20671;-74
2022/07/18 05:53:11;;;;;;;6.27;3.47;;;;;;;17.08;100.00;102388.59;4982102;28;20201;-74
2022/07/18 05:55:36;;;;;;;4.87;3.13;;;;;;;16.90;100.00;102334.16;4979270;28;20531;-75
2022/07/18 05:58:02;;;;;;;4.83;3.63;;;;;;;17.12;100.00;102340.22;4979714;28;20540;-74
2022/07/18 06:00:29;;;;;;;5.47;3.20;;;;;;;16.89;100.00;102292.66;4982878;28;20676;-74
2022/07/18 06:02:54;;;;;;;6.23;3.30;;;;;;;17.21;100.00;102316.47;4980301;28;20221;-74
2022/07/18 06:05:20;;;;;;;5.27;3.20;;;;;;;17.59;100.00;102376.38;4983904;28;20436;-73
2022/07/18 06:07:45;;;;;;;6.73;3.60;;;;;;;17.05;100.00;102280.59;4984321;28;20192;-74
2022/07/18 06:10:11;;;;;;;7.77;3.60;;;;;;;17.22;100.00;102266.63;4981946;28;20245;-74
2022/07/18 06:12:36;;;;;;;8.20;3.30;;;;;;;17.78;100.00;102356.56;4980970;28;20685;-74
2022/07/18 06:15:02;;;;;;;4.80;2.70;;;;;;;17.84;100.00;102346.75;4981903;28;20186;-74
2022/07/18 06:17:29;;;;;;;4.13;3.10;;;;;;;17.46;100.00;102257.00;4980373;28;20577;-74
2022/07/18 06:19:55;;;;;;;4.50;2.90;;;;;;;17.63;100.00;102297.06;4982895;28;20206;-74
2022/07/18 06:22:22;;;;;;;9.87;3.43;;;;;;;17.67;100.00;102288.50;4983641;28;21057;-74
2022/07/18 06:24:47;;;;;;;5.00;2.83;;;;;;;18.12;100.00;102337.53;4981785;28;20484;-74
2022/07/18 06:27:14;;;;;;;7.93;3.10;;;;;;;18.25;100.00;102334.75;4981079;28;20547;-74
2022/07/18 06:29:39;;;;;;;3.67;2.50;;;;;;;18.42;100.00;102333.22;4987099;28;20461;-74
2022/07/18 06:32:05;;;;;;;4.10;2.90;;;;;;;18.39;100.00;102316.53;4985719;28;20189;-73
2022/07/18 06:34:31;;;;;;;5.03;3.10;;;;;;;18.49;100.00;102342.22;4981266;28;20191;-74
2022/07/18 06:36:56;;;;;;;6.50;3.23;;;;;;;18.45;100.00;102346.38;4981788;28;20826;-73
2022/07/18 06:39:22;;;;;;;3.70;2.80;;;;;;;18.45;100.00;102331.97;4980416;28;20694;-73
2022/07/18 06:41:47;;;;;;;5.37;2.97;;;;;;;18.32;100.00;102291.31;4983112;28;20228;-74
2022/07/18 06:44:13;;;;;;;4.53;2.40;;;;;;;18.68;100.00;102343.16;4983496;28;20186;-74
2022/07/18 06:46:39;;;;;;;4.23;2.70;;;;;;;18.70;100.00;102324.75;4984308;28;20562;-74
2022/07/18 06:49:05;;;;;;;3.30;2.60;;;;;;;18.74;100.00;102330.63;4983599;28;20457;-73
2022/07/18 06:51:31;;;;;;;4.50;2.70;;;;;;;18.71;100.00;102310.09;4984463;28;20178;-72
2022/07/18 06:53:57;;;;;;;4.70;2.70;;;;;;;18.93;100.00;102346.00;4983827;28;20433;-72
2022/07/18 06:56:22;;;;;;;4.80;2.70;;;;;;;18.97;100.00;102352.66;4984206;28;20441;-73
2022/07/18 06:58:51;;;;;;;4.23;2.13;;;;;;;19.11;100.00;102361.56;4982508;28;20481;-72
2022/07/18 07:01:17;;;;;;;5.43;2.73;;;;;;;19.22;100.00;102354.59;4983035;28;20182;-72
2022/07/18 07:03:43;;;;;;;3.57;2.43;;;;;;;19.20;100.00;102338.50;4983583;28;20449;-72
2022/07/18 07:06:08;;;;;;;5.50;2.70;;;;;;;19.48;100.00;102363.63;4983688;28;20434;-72
2022/07/18 07:08:34;;;;;;;5.60;2.80;;;;;;;19.22;100.00;102293.94;4979799;28;20209;-72
2022/07/18 07:11:00;;;;;;;5.47;2.90;;;;;;;19.28;100.00;102283.00;4978662;28;20860;-72
2022/07/18 07:13:25;;;;;;;3.20;2.33;;;;;;;19.77;100.00;102318.59;4979215;28;20193;-72
2022/07/18 07:15:50;;;;;;;3.73;2.53;;;;;;;19.87;100.00;102335.25;4981916;28;20178;-74
2022/07/18 07:18:16;;;;;;;2.07;1.83;;;;;;;19.47;100.00;102266.72;4982015;28;20222;-73
2022/07/18 07:20:41;;;;;;;3.70;2.60;;;;;;;19.27;100.00;102231.56;4984111;28;20201;-73
2022/07/18 07:23:08;;;;;;;2.70;2.33;;;;;;;20.23;100.00;102349.97;4983478;28;20190;-72
2022/07/18 07:25:34;;;;;;;3.13;1.90;;;;;;;20.05;100.00;102337.19;4984181;28;20638;-72
2022/07/18 07:28:00;;;;;;;3.27;2.53;;;;;;;19.92;100.00;102331.84;4983262;28;20420;-72
2022/07/18 07:30:25;;;;;;;3.13;2.10;;;;;;;20.00;100.00;102328.84;4979628;28;20997;-72
2022/07/18 07:32:51;;;;;;;4.90;2.23;;;;;;;20.08;100.00;102320.38;4984281;28;20227;-72
2022/07/18 07:35:19;;;;;;;2.13;1.67;;;;;;;20.10;100.00;102318.25;4983063;28;20288;-72
2022/07/18 07:37:50;;;;;;;3.87;1.90;;;;;;;20.32;100.00;102314.00;4981878;28;20437;-72
2022/07/18 07:40:16;;;;;;;3.10;2.23;;;;;;;20.30;100.00;102312.56;4980293;28;20445;-73
2022/07/18 07:42:42;;;;;;;4.87;2.40;;;;;;;20.47;100.00;102304.63;4979732;28;20922;-73
2022/07/18 07:45:08;;;;;;;3.23;2.60;;;;;;;20.68;100.00;102320.50;4976056;28;20197;-72
2022/07/18 07:47:34;;;;;;;5.17;2.60;;;;;;;20.24;100.00;102264.44;4979388;28;20437;-73
2022/07/18 07:50:00;;;;;;;6.97;2.00;;;;;;;20.57;100.00;102325.91;4983852;28;20503;-71
2022/07/18 07:52:27;;;;;;;4.03;1.90;;;;;;;20.74;100.00;102316.00;4980073;28;20527;-72
2022/07/18 07:54:52;;;;;;;2.33;2.00;;;;;;;21.01;100.00;102319.22;4980260;28;20188;-72
2022/07/18 07:57:18;;;;;;;6.63;2.70;;;;;;;20.97;100.00;102320.72;4979115;28;20448;-71
2022/07/18 07:59:44;;;;;;;3.77;2.70;;;;;;;20.76;100.00;102303.00;4978693;28;20599;-71
2022/07/18 08:02:09;;;;;;;3.90;2.20;;;;;;;20.44;100.00;102236.94;4979870;28;20190;-72
2022/07/18 08:04:35;;;;;;;4.47;2.30;;;;;;;21.09;100.00;102307.13;4982752;28;20298;-72
2022/07/18 08:07:00;;;;;;;2.30;1.97;;;;;;;20.98;100.00;102301.41;4982438;28;20209;-72
2022/07/18 08:09:26;;;;;;;3.87;2.50;;;;;;;21.05;100.00;102304.03;4980138;28;20220;-71
2022/07/18 08:11:51;;;;;;;3.73;2.00;;;;;;;20.94;100.00;102270.22;4978560;28;20619;-72
2022/07/18 08:14:17;;;;;;;4.40;2.03;;;;;;;21.31;100.00;102264.56;4981542;28;20185;-72
2022/07/18 08:16:43;;;;;;;4.37;2.70;;;;;;;21.42;100.00;102271.97;4982382;28;20678;-72
2022/07/18 08:19:08;;;;;;;3.13;1.73;;;;;;;21.63;100.00;102269.72;4972672;28;20241;-72
2022/07/18 08:21:33;;;;;;;3.70;1.80;;;;;;;22.12;100.00;102298.38;4982975;28;20178;-72
2022/07/18 08:23:59;;;;;;;6.10;2.43;;;;;;;22.04;100.00;102289.72;4982524;28;20180;-72
2022/07/18 08:26:25;;;;;;;4.23;1.93;;;;;;;21.40;100.00;102213.22;4978433;28;20200;-72
2022/07/18 08:28:50;;;;;;;8.10;1.90;;;;;;;21.89;100.00;102307.44;4974934;28;20205;-72
2022/07/18 08:31:18;;;;;;;9.37;1.80;;;;;;;21.82;100.00;102304.03;4976262;28;20253;-73
2022/07/18 08:33:43;;;;;;;3.20;2.20;;;;;;;21.86;100.00;102301.63;4973931;28;20228;-71
2022/07/18 08:36:09;;;;;;;5.07;2.40;;;;;;;22.02;100.00;102281.78;4979908;28;20885;-71
2022/07/18 08:38:34;;;;;;;4.80;3.00;;;;;;;21.96;100.00;102270.97;4981513;28;20210;-71
2022/07/18 08:41:00;;;;;;;4.10;2.47;;;;;;;22.22;100.00;102308.75;4981369;28;21558;-72
2022/07/18 08:43:26;;;;;;;6.70;2.60;;;;;;;22.22;100.00;102297.00;4982520;28;20228;-71
2022/07/18 08:45:56;;;;;;;2.57;2.10;;;;;;;22.20;100.00;102296.41;4982260;28;20848;-71
2022/07/18 08:48:22;;;;;;;3.40;2.00;;;;;;;22.19;100.00;102289.25;4980316;28;20205;-73
2022/07/18 08:50:49;;;;;;;2.93;2.00;;;;;;;22.34;100.00;102287.69;4970385;28;20463;-74
2022/07/18 08:53:16;;;;;;;3.77;2.13;;;;;;;22.11;100.00;102263.94;4967612;28;20405;-73
2022/07/18 08:55:42;;;;;;;3.43;2.57;;;;;;;22.01;100.00;102230.94;4974370;28;20541;-72
2022/07/18 08:58:09;;;;;;;6.63;1.57;;;;;;;22.27;100.00;102276.03;4972865;28;20536;-71
2022/07/18 09:00:35;;;;;;;2.00;1.67;;;;;;;22.34;100.00;102273.19;4967555;28;20444;-73
2022/07/18 09:03:03;;;;;;;6.43;2.37;;;;;;;22.17;100.00;102221.19;4970376;28;20809;-73
2022/07/18 09:05:30;;;;;;;4.77;2.03;;;;;;;22.12;100.00;102216.41;4968927;28;20239;-71
2022/07/18 09:08:16;;;;;;;3.00;1.30;;;;;;;22.46;100.00;102273.97;4972796;28;21073;-72
2022/07/18 09:10:53;;;;;;;2.40;2.00;;;;;;;22.58;100.00;102293.06;4967871;28;20448;-71
2022/07/18 09:13:22;;;;;;;3.73;1.53;;;;;;;22.55;100.00;102291.63;4973494;28;20523;-73
2022/07/18 09:15:59;;;;;;;3.20;1.57;;;;;;;22.59;100.00;102272.81;4979945;28;20440;-72
2022/07/18 09:18:30;;;;;;;3.43;1.80;;;;;;;22.60;100.00;102268.22;4974129;28;20483;-71
2022/07/18 09:21:05;;;;;;;4.03;1.30;;;;;;;22.88;100.00;102273.63;4972961;28;20452;-71
2022/07/18 09:23:32;;;;;;;4.53;1.27;;;;;;;22.56;100.00;102249.56;4983669;28;20488;-72
2022/07/18 09:25:59;;;;;;;2.57;1.33;;;;;;;22.95;100.00;102277.09;4984334;28;20448;-71
2022/07/18 09:28:26;;;;;;;3.10;1.30;;;;;;;23.07;100.00;102274.28;4984305;28;20985;-73
2022/07/18 09:30:52;;;;;;;3.07;1.30;;;;;;;23.18;100.00;102267.06;4984445;28;20436;-72
2022/07/18 09:33:20;;;;;;;2.63;0.87;;;;;;;22.97;100.00;102242.09;4985070;28;20443;-72
2022/07/18 09:35:49;;;;;;;2.53;1.50;;;;;;;23.13;100.00;102270.53;4985638;28;20244;-71
2022/07/18 09:38:20;;;;;;;1.97;1.10;;;;;;;22.97;100.00;102244.00;4985912;28;20831;-72
2022/07/18 09:40:53;;;;;;;6.57;2.00;;;;;;;23.16;100.00;102269.22;4983425;28;20429;-72
2022/07/18 09:43:22;;;;;;;4.60;1.53;;;;;;;23.27;100.00;102265.56;4984970;28;20445;-72
2022/07/18 09:45:56;;;;;;;5.47;1.60;;;;;;;23.36;100.00;102265.97;4985555;28;20764;-72
2022/07/18 09:48:27;;;;;;;2.70;1.53;;;;;;;23.22;100.00;102218.94;4985125;28;20449;-71
2022/07/18 09:51:01;;;;;;;6.73;1.33;;;;;;;23.52;100.00;102239.66;4984524;28;20528;-72
2022/07/18 09:53:41;;;;;;;2.80;1.20;;;;;;;23.69;100.00;102262.34;4984695;28;20454;-71
2022/07/18 09:56:22;;;;;;;4.77;1.50;;;;;;;23.65;100.00;102274.91;4988515;28;20436;-72
2022/07/18 09:58:55;;;;;;;3.87;1.97;;;;;;;23.51;100.00;102257.16;4983769;28;20484;-72
2022/07/18 10:01:23;;;;;;;8.70;3.73;;;;;;;23.82;100.00;102274.91;4985253;28;20444;-71
2022/07/18 10:03:49;;;;;;;3.30;1.63;;;;;;;23.77;100.00;102253.72;4984606;28;20910;-72
2022/07/18 10:06:15;;;;;;;2.87;1.47;;;;;;;23.84;100.00;102237.13;4983602;28;20425;-72
2022/07/18 10:08:40;;;;;;;5.90;2.00;;;;;;;23.61;100.00;102216.25;4985194;28;20282;-71
2022/07/18 10:11:06;;;;;;;2.53;1.30;;;;;;;23.80;100.00;102235.97;4985053;28;20865;-72
2022/07/18 10:13:33;;;;;;;2.73;1.40;;;;;;;24.13;100.00;102271.47;4985237;28;20555;-72
2022/07/18 10:15:59;;;;;;;3.80;1.93;;;;;;;24.27;100.00;102271.06;4985283;28;20433;-73
2022/07/18 10:18:27;;;;;;;3.15;1.45;;;;;;;24.52;100.00;102267.81;4999496;28;20465;-72
2022/07/18 10:21:01;;;;;;;2.73;1.33;;;;;;;24.45;100.00;102275.44;4982502;28;22631;-73
2022/07/18 10:23:27;;;;;;;3.17;1.60;;;;;;;24.26;100.00;102277.66;4981834;28;20440;-72
2022/07/18 10:26:11;;;;;;;5.50;3.50;;;;;;;24.64;100.00;102268.50;4985238;28;20863;-72
2022/07/18 10:28:59;;;;;;;6.00;1.37;;;;;;;24.23;100.00;102269.94;4984350;28;20632;-73
2022/07/18 10:31:33;;;;;;;2.50;1.40;;;;;;;24.48;100.00;102242.84;4982698;28;20804;-73
2022/07/18 10:34:08;;;;;;;2.37;1.57;;;;;;;24.39;100.00;102268.19;4983822;28;20486;-75
2022/07/18 10:36:36;;;;;;;4.63;1.73;;;;;;;24.38;100.00;102266.53;4984217;28;20424;-74
2022/07/18 10:39:23;;;;;;;13.77;8.40;;;;;;;24.42;100.00;102260.31;4981771;28;20551;-72
2022/07/18 10:41:52;;;;;;;3.23;1.60;;;;;;;24.48;100.00;102263.97;4984934;28;20442;-74
2022/07/18 10:44:20;;;;;;;2.63;1.70;;;;;;;24.62;100.00;102258.88;4983644;28;20437;-74
2022/07/18 10:47:09;;;;;;;3.17;1.47;;;;;;;24.48;100.00;102259.28;4984498;28;20968;-75
2022/07/18 10:52:24;;;;;;;4.83;1.90;;;;;;;24.52;100.00;102259.59;4983491;28;20941;-72
2022/07/18 10:55:02;;;;;;;3.77;1.67;;;;;;;24.61;100.00;102259.97;4983449;28;20432;-71
2022/07/18 10:57:41;;;;;;;3.10;1.60;;;;;;;24.44;100.00;102249.91;4985686;28;20943;-72
2022/07/18 11:00:15;;;;;;;3.40;1.40;;;;;;;24.50;100.00;102259.88;4983670;28;20843;-73
2022/07/18 11:02:41;;;;;;;5.40;2.17;;;;;;;24.73;100.00;102255.97;4983591;28;20495;-72
2022/07/18 11:05:35;;;;;;;4.17;1.57;;;;;;;24.58;100.00;102220.16;4984236;28;20429;-72
2022/07/18 11:08:01;;;;;;;3.57;1.80;;;;;;;25.00;100.00;102255.94;4978013;28;20436;-72
2022/07/18 11:10:42;;;;;;;2.83;1.70;;;;;;;25.31;100.00;102255.38;4979772;28;20484;-72
2022/07/18 11:13:29;;;;;;;6.30;1.70;;;;;;;24.84;100.00;102247.84;4979154;28;20187;-72
2022/07/18 11:16:11;;;;;;;4.17;1.57;;;;;;;24.77;100.00;102251.63;4980694;28;20927;-73
2022/07/18 11:18:43;;;;;;;4.20;1.53;;;;;;;24.69;100.00;102248.53;4982739;28;20461;-72
2022/07/18 11:21:34;;;;;;;5.00;2.43;;;;;;;24.92;100.00;102247.38;4981947;28;20429;-73
2022/07/18 11:24:02;;;;;;;6.23;2.43;;;;;;;24.78;100.00;102219.53;4982513;28;20528;-73